Hashtown, Indiana
Current Conditions -  °F | °C
As of 2:53 PM on Thursday 23 Oct 2014 (Local Time) from KBMG Reporting Station
Clear Clear  
Wind Chill: 58°   Ceiling: Unl
Heat Index: 58°   Visibility: 10mi
Dew Point: 42°   Wind: 3mph
Humidity: 56%   Direction: 110°ESE
Pressure: 30.17"   Gusts: NA
Location:  39.0306°N, 86.8553°W
Report Text: KBMG 231853Z 11003KT 10SM CLR 14/06 A3017 RMK AO2 SLP216 T01440056
Loading
Personal Weather Stations






























Interactive Weather Map
Tropical Storm Tracking
New forecast layout! Learn more

10-Day Weather Forecast

Advertisements
Track Severe Weather on mobile